sensor_id;sensor_type;location;lat;lon;timestamp;P1;durP1;ratioP1;P2;durP2;ratioP2
40588;SDS011;26297;49.450;6.640;2023-07-20T00:01:12;1.88;;;1.00;;
40588;SDS011;26297;49.450;6.640;2023-07-20T00:04:23;2.47;;;1.30;;
40588;SDS011;26297;49.450;6.640;2023-07-20T00:07:48;5.18;;;1.15;;
40588;SDS011;26297;49.450;6.640;2023-07-20T00:10:58;1.20;;;0.80;;
40588;SDS011;26297;49.450;6.640;2023-07-20T00:14:07;2.08;;;0.88;;
40588;SDS011;26297;49.450;6.640;2023-07-20T00:17:11;1.83;;;1.33;;
40588;SDS011;26297;49.450;6.640;2023-07-20T00:20:24;3.05;;;1.20;;
40588;SDS011;26297;49.450;6.640;2023-07-20T00:23:29;1.67;;;0.98;;
40588;SDS011;26297;49.450;6.640;2023-07-20T00:26:43;2.35;;;0.98;;
40588;SDS011;26297;49.450;6.640;2023-07-20T00:30:01;1.92;;;1.17;;
40588;SDS011;26297;49.450;6.640;2023-07-20T00:33:12;3.50;;;1.20;;
40588;SDS011;26297;49.450;6.640;2023-07-20T00:36:25;2.20;;;1.00;;
40588;SDS011;26297;49.450;6.640;2023-07-20T00:39:30;1.83;;;0.93;;
40588;SDS011;26297;49.450;6.640;2023-07-20T00:42:50;1.25;;;1.00;;
40588;SDS011;26297;49.450;6.640;2023-07-20T00:46:05;2.72;;;0.98;;
40588;SDS011;26297;49.450;6.640;2023-07-20T00:49:19;1.63;;;1.00;;
40588;SDS011;26297;49.450;6.640;2023-07-20T00:52:28;1.85;;;1.33;;
40588;SDS011;26297;49.450;6.640;2023-07-20T00:56:04;2.13;;;1.33;;
40588;SDS011;26297;49.450;6.640;2023-07-20T00:59:39;1.33;;;0.90;;
40588;SDS011;26297;49.450;6.640;2023-07-20T01:02:46;3.63;;;1.25;;
40588;SDS011;26297;49.450;6.640;2023-07-20T01:05:54;1.45;;;1.23;;
40588;SDS011;26297;49.450;6.640;2023-07-20T01:09:23;1.35;;;1.17;;
40588;SDS011;26297;49.450;6.640;2023-07-20T01:12:41;2.88;;;1.27;;
40588;SDS011;26297;49.450;6.640;2023-07-20T01:15:49;3.88;;;1.20;;
40588;SDS011;26297;49.450;6.640;2023-07-20T01:22:42;1.95;;;1.20;;
40588;SDS011;26297;49.450;6.640;2023-07-20T01:26:11;1.58;;;1.05;;
40588;SDS011;26297;49.450;6.640;2023-07-20T01:29:49;2.47;;;1.20;;
40588;SDS011;26297;49.450;6.640;2023-07-20T01:33:32;2.70;;;1.33;;
40588;SDS011;26297;49.450;6.640;2023-07-20T01:36:58;4.32;;;1.33;;
40588;SDS011;26297;49.450;6.640;2023-07-20T01:40:06;3.00;;;1.13;;
40588;SDS011;26297;49.450;6.640;2023-07-20T01:43:16;3.85;;;1.30;;
40588;SDS011;26297;49.450;6.640;2023-07-20T01:46:23;1.88;;;1.17;;
40588;SDS011;26297;49.450;6.640;2023-07-20T01:49:32;2.75;;;1.20;;
40588;SDS011;26297;49.450;6.640;2023-07-20T01:52:39;2.28;;;1.55;;
40588;SDS011;26297;49.450;6.640;2023-07-20T01:56:17;5.50;;;1.48;;
40588;SDS011;26297;49.450;6.640;2023-07-20T01:59:19;1.38;;;1.17;;
40588;SDS011;26297;49.450;6.640;2023-07-20T02:02:30;2.78;;;1.55;;
40588;SDS011;26297;49.450;6.640;2023-07-20T02:05:52;1.42;;;0.95;;
40588;SDS011;26297;49.450;6.640;2023-07-20T02:09:02;3.30;;;1.27;;
40588;SDS011;26297;49.450;6.640;2023-07-20T02:12:08;2.08;;;1.25;;
40588;SDS011;26297;49.450;6.640;2023-07-20T02:15:17;2.58;;;1.15;;
40588;SDS011;26297;49.450;6.640;2023-07-20T02:18:35;2.13;;;1.30;;
40588;SDS011;26297;49.450;6.640;2023-07-20T02:22:12;1.73;;;1.25;;
40588;SDS011;26297;49.450;6.640;2023-07-20T02:25:20;2.13;;;1.38;;
40588;SDS011;26297;49.450;6.640;2023-07-20T02:28:27;2.50;;;1.25;;
40588;SDS011;26297;49.450;6.640;2023-07-20T02:31:33;1.63;;;1.00;;
40588;SDS011;26297;49.450;6.640;2023-07-20T02:34:38;6.68;;;1.40;;
40588;SDS011;26297;49.450;6.640;2023-07-20T02:37:43;2.92;;;1.33;;
40588;SDS011;26297;49.450;6.640;2023-07-20T02:40:50;1.35;;;1.20;;
40588;SDS011;26297;49.450;6.640;2023-07-20T02:44:01;1.45;;;1.25;;
40588;SDS011;26297;49.450;6.640;2023-07-20T02:47:14;3.25;;;1.38;;
40588;SDS011;26297;49.450;6.640;2023-07-20T02:50:27;2.22;;;1.42;;
40588;SDS011;26297;49.450;6.640;2023-07-20T02:53:55;1.88;;;1.27;;
40588;SDS011;26297;49.450;6.640;2023-07-20T02:57:11;2.80;;;1.30;;
40588;SDS011;26297;49.450;6.640;2023-07-20T03:00:23;3.42;;;1.40;;
40588;SDS011;26297;49.450;6.640;2023-07-20T03:03:38;2.63;;;1.30;;
40588;SDS011;26297;49.450;6.640;2023-07-20T03:06:48;1.38;;;1.20;;
40588;SDS011;26297;49.450;6.640;2023-07-20T03:09:56;3.15;;;1.00;;
40588;SDS011;26297;49.450;6.640;2023-07-20T03:13:10;2.67;;;1.42;;
40588;SDS011;26297;49.450;6.640;2023-07-20T03:16:17;2.28;;;1.33;;
40588;SDS011;26297;49.450;6.640;2023-07-20T03:19:30;3.00;;;1.25;;
40588;SDS011;26297;49.450;6.640;2023-07-20T03:22:42;4.45;;;1.40;;
40588;SDS011;26297;49.450;6.640;2023-07-20T03:25:51;1.80;;;1.10;;
40588;SDS011;26297;49.450;6.640;2023-07-20T03:29:03;1.92;;;1.45;;
40588;SDS011;26297;49.450;6.640;2023-07-20T03:36:08;1.65;;;1.10;;
40588;SDS011;26297;49.450;6.640;2023-07-20T03:39:22;2.75;;;1.20;;
40588;SDS011;26297;49.450;6.640;2023-07-20T03:42:28;2.45;;;1.10;;
40588;SDS011;26297;49.450;6.640;2023-07-20T03:45:45;2.20;;;1.20;;
40588;SDS011;26297;49.450;6.640;2023-07-20T03:48:52;4.13;;;1.67;;
40588;SDS011;26297;49.450;6.640;2023-07-20T03:51:58;2.90;;;1.30;;
40588;SDS011;26297;49.450;6.640;2023-07-20T03:55:17;1.20;;;1.10;;
40588;SDS011;26297;49.450;6.640;2023-07-20T03:58:32;2.50;;;1.40;;
40588;SDS011;26297;49.450;6.640;2023-07-20T04:01:39;2.65;;;1.42;;
40588;SDS011;26297;49.450;6.640;2023-07-20T04:04:51;4.15;;;1.45;;
40588;SDS011;26297;49.450;6.640;2023-07-20T04:11:23;2.08;;;1.20;;
40588;SDS011;26297;49.450;6.640;2023-07-20T04:14:41;2.95;;;1.20;;
40588;SDS011;26297;49.450;6.640;2023-07-20T04:17:48;1.50;;;1.13;;
40588;SDS011;26297;49.450;6.640;2023-07-20T04:21:05;2.65;;;1.65;;
40588;SDS011;26297;49.450;6.640;2023-07-20T04:24:18;3.03;;;1.40;;
40588;SDS011;26297;49.450;6.640;2023-07-20T04:27:30;4.45;;;1.73;;
40588;SDS011;26297;49.450;6.640;2023-07-20T04:30:41;2.08;;;1.38;;
40588;SDS011;26297;49.450;6.640;2023-07-20T04:34:22;3.33;;;1.60;;
40588;SDS011;26297;49.450;6.640;2023-07-20T04:37:34;2.05;;;1.65;;
40588;SDS011;26297;49.450;6.640;2023-07-20T04:41:02;2.20;;;1.48;;
40588;SDS011;26297;49.450;6.640;2023-07-20T04:48:02;5.47;;;1.67;;
40588;SDS011;26297;49.450;6.640;2023-07-20T04:51:23;2.53;;;1.60;;
40588;SDS011;26297;49.450;6.640;2023-07-20T04:54:31;2.65;;;1.35;;
40588;SDS011;26297;49.450;6.640;2023-07-20T04:57:43;3.10;;;1.60;;
40588;SDS011;26297;49.450;6.640;2023-07-20T05:01:04;2.92;;;1.70;;
40588;SDS011;26297;49.450;6.640;2023-07-20T05:04:17;2.13;;;1.50;;
40588;SDS011;26297;49.450;6.640;2023-07-20T05:07:33;6.45;;;1.80;;
40588;SDS011;26297;49.450;6.640;2023-07-20T05:10:43;5.60;;;1.95;;
40588;SDS011;26297;49.450;6.640;2023-07-20T05:13:57;2.53;;;1.42;;
40588;SDS011;26297;49.450;6.640;2023-07-20T05:17:27;2.88;;;1.35;;
40588;SDS011;26297;49.450;6.640;2023-07-20T05:28:43;2.17;;;1.27;;
40588;SDS011;26297;49.450;6.640;2023-07-20T05:32:08;3.67;;;1.30;;
40588;SDS011;26297;49.450;6.640;2023-07-20T05:35:16;3.97;;;1.65;;
40588;SDS011;26297;49.450;6.640;2023-07-20T05:38:31;3.83;;;1.70;;
40588;SDS011;26297;49.450;6.640;2023-07-20T05:42:10;2.17;;;1.20;;
40588;SDS011;26297;49.450;6.640;2023-07-20T05:45:26;2.63;;;1.52;;
40588;SDS011;26297;49.450;6.640;2023-07-20T05:48:44;2.15;;;1.52;;
40588;SDS011;26297;49.450;6.640;2023-07-20T05:51:57;2.90;;;1.80;;
40588;SDS011;26297;49.450;6.640;2023-07-20T05:58:31;1.80;;;1.35;;
40588;SDS011;26297;49.450;6.640;2023-07-20T06:01:59;4.00;;;1.65;;
40588;SDS011;26297;49.450;6.640;2023-07-20T06:05:41;2.47;;;1.55;;
40588;SDS011;26297;49.450;6.640;2023-07-20T08:17:57;3.13;;;1.15;;
40588;SDS011;26297;49.450;6.640;2023-07-20T08:21:04;5.88;;;1.30;;
40588;SDS011;26297;49.450;6.640;2023-07-20T08:41:01;4.95;;;1.17;;
40588;SDS011;26297;49.450;6.640;2023-07-20T08:44:04;1.73;;;1.33;;
40588;SDS011;26297;49.450;6.640;2023-07-20T08:47:10;3.35;;;1.52;;
40588;SDS011;26297;49.450;6.640;2023-07-20T08:50:19;4.93;;;1.40;;
40588;SDS011;26297;49.450;6.640;2023-07-20T09:52:34;0.90;;;0.90;;
40588;SDS011;26297;49.450;6.640;2023-07-20T09:55:39;1.77;;;0.90;;
40588;SDS011;26297;49.450;6.640;2023-07-20T09:58:44;5.25;;;0.93;;
40588;SDS011;26297;49.450;6.640;2023-07-20T10:01:50;5.75;;;1.08;;
40588;SDS011;26297;49.450;6.640;2023-07-20T10:13:34;1.08;;;0.80;;
40588;SDS011;26297;49.450;6.640;2023-07-20T10:21:40;5.07;;;1.02;;
40588;SDS011;26297;49.450;6.640;2023-07-20T10:24:47;1.00;;;0.88;;
40588;SDS011;26297;49.450;6.640;2023-07-20T10:27:52;3.80;;;1.38;;
40588;SDS011;26297;49.450;6.640;2023-07-20T10:38:56;1.58;;;0.60;;
40588;SDS011;26297;49.450;6.640;2023-07-20T10:42:00;2.63;;;1.00;;
40588;SDS011;26297;49.450;6.640;2023-07-20T10:45:05;2.17;;;0.90;;
40588;SDS011;26297;49.450;6.640;2023-07-20T10:48:19;2.60;;;0.90;;
40588;SDS011;26297;49.450;6.640;2023-07-20T10:51:26;2.33;;;1.10;;
40588;SDS011;26297;49.450;6.640;2023-07-20T10:54:35;1.70;;;1.10;;
40588;SDS011;26297;49.450;6.640;2023-07-20T11:01:13;1.48;;;1.13;;
40588;SDS011;26297;49.450;6.640;2023-07-20T11:04:17;1.80;;;1.10;;
40588;SDS011;26297;49.450;6.640;2023-07-20T11:07:38;4.07;;;1.58;;
40588;SDS011;26297;49.450;6.640;2023-07-20T11:10:41;3.40;;;1.48;;
40588;SDS011;26297;49.450;6.640;2023-07-20T11:13:58;2.22;;;1.13;;
40588;SDS011;26297;49.450;6.640;2023-07-20T11:17:10;1.80;;;0.80;;
40588;SDS011;26297;49.450;6.640;2023-07-20T12:25:33;0.93;;;0.50;;
40588;SDS011;26297;49.450;6.640;2023-07-20T12:29:12;1.05;;;0.63;;
40588;SDS011;26297;49.450;6.640;2023-07-20T12:32:21;0.90;;;0.70;;
40588;SDS011;26297;49.450;6.640;2023-07-20T13:02:15;0.60;;;0.57;;
40588;SDS011;26297;49.450;6.640;2023-07-20T13:05:21;0.65;;;0.50;;
40588;SDS011;26297;49.450;6.640;2023-07-20T14:22:51;0.50;;;0.40;;
40588;SDS011;26297;49.450;6.640;2023-07-20T14:25:58;0.73;;;0.60;;
40588;SDS011;26297;49.450;6.640;2023-07-20T14:29:11;1.10;;;0.75;;
40588;SDS011;26297;49.450;6.640;2023-07-20T14:32:32;0.75;;;0.50;;
40588;SDS011;26297;49.450;6.640;2023-07-20T14:36:08;0.73;;;0.63;;
40588;SDS011;26297;49.450;6.640;2023-07-20T14:39:33;2.20;;;0.73;;
40588;SDS011;26297;49.450;6.640;2023-07-20T14:42:59;2.05;;;1.00;;
40588;SDS011;26297;49.450;6.640;2023-07-20T14:46:16;0.68;;;0.60;;
40588;SDS011;26297;49.450;6.640;2023-07-20T14:50:05;1.05;;;0.57;;
40588;SDS011;26297;49.450;6.640;2023-07-20T14:53:09;1.15;;;0.60;;
40588;SDS011;26297;49.450;6.640;2023-07-20T14:56:54;1.67;;;0.70;;
40588;SDS011;26297;49.450;6.640;2023-07-20T15:00:34;1.00;;;0.73;;
40588;SDS011;26297;49.450;6.640;2023-07-20T15:08:02;0.70;;;0.60;;
40588;SDS011;26297;49.450;6.640;2023-07-20T15:11:33;0.98;;;0.70;;
40588;SDS011;26297;49.450;6.640;2023-07-20T15:15:12;0.98;;;0.60;;
40588;SDS011;26297;49.450;6.640;2023-07-20T15:18:32;1.93;;;0.67;;
40588;SDS011;26297;49.450;6.640;2023-07-20T15:21:50;1.00;;;0.70;;
40588;SDS011;26297;49.450;6.640;2023-07-20T15:25:11;2.53;;;0.60;;
40588;SDS011;26297;49.450;6.640;2023-07-20T15:28:22;1.52;;;0.68;;
40588;SDS011;26297;49.450;6.640;2023-07-20T15:35:13;0.80;;;0.50;;
40588;SDS011;26297;49.450;6.640;2023-07-20T15:39:06;1.15;;;0.50;;
40588;SDS011;26297;49.450;6.640;2023-07-20T15:42:11;1.80;;;0.50;;
40588;SDS011;26297;49.450;6.640;2023-07-20T15:45:36;1.25;;;0.50;;
40588;SDS011;26297;49.450;6.640;2023-07-20T15:48:43;1.10;;;0.47;;
40588;SDS011;26297;49.450;6.640;2023-07-20T15:55:33;0.73;;;0.50;;
40588;SDS011;26297;49.450;6.640;2023-07-20T16:02:33;0.35;;;0.35;;
40588;SDS011;26297;49.450;6.640;2023-07-20T16:09:15;0.55;;;0.55;;
40588;SDS011;26297;49.450;6.640;2023-07-20T16:12:14;1.98;;;0.60;;
40588;SDS011;26297;49.450;6.640;2023-07-20T16:18:54;1.38;;;0.73;;
40588;SDS011;26297;49.450;6.640;2023-07-20T16:21:58;0.50;;;0.50;;
40588;SDS011;26297;49.450;6.640;2023-07-20T16:25:18;0.50;;;0.50;;
40588;SDS011;26297;49.450;6.640;2023-07-20T16:28:38;0.70;;;0.50;;
40588;SDS011;26297;49.450;6.640;2023-07-20T16:31:42;1.48;;;0.50;;
40588;SDS011;26297;49.450;6.640;2023-07-20T16:34:47;0.88;;;0.65;;
40588;SDS011;26297;49.450;6.640;2023-07-20T16:38:04;1.65;;;0.70;;
40588;SDS011;26297;49.450;6.640;2023-07-20T16:41:11;0.50;;;0.50;;
40588;SDS011;26297;49.450;6.640;2023-07-20T16:44:25;0.85;;;0.70;;
40588;SDS011;26297;49.450;6.640;2023-07-20T16:47:35;0.60;;;0.55;;
40588;SDS011;26297;49.450;6.640;2023-07-20T16:50:43;1.77;;;0.63;;
40588;SDS011;26297;49.450;6.640;2023-07-20T16:57:20;0.50;;;0.32;;
40588;SDS011;26297;49.450;6.640;2023-07-20T17:00:31;0.98;;;0.47;;
40588;SDS011;26297;49.450;6.640;2023-07-20T17:06:41;1.40;;;0.60;;
40588;SDS011;26297;49.450;6.640;2023-07-20T17:10:02;1.48;;;0.60;;
40588;SDS011;26297;49.450;6.640;2023-07-20T17:13:16;1.85;;;0.57;;
40588;SDS011;26297;49.450;6.640;2023-07-20T17:16:22;3.10;;;0.50;;
40588;SDS011;26297;49.450;6.640;2023-07-20T17:19:30;0.82;;;0.60;;
40588;SDS011;26297;49.450;6.640;2023-07-20T17:22:41;0.90;;;0.50;;
40588;SDS011;26297;49.450;6.640;2023-07-20T17:25:51;1.45;;;0.65;;
40588;SDS011;26297;49.450;6.640;2023-07-20T17:28:59;3.00;;;0.82;;
40588;SDS011;26297;49.450;6.640;2023-07-20T17:32:15;2.28;;;0.70;;
40588;SDS011;26297;49.450;6.640;2023-07-20T17:35:21;2.25;;;0.80;;
40588;SDS011;26297;49.450;6.640;2023-07-20T17:38:29;0.73;;;0.60;;
40588;SDS011;26297;49.450;6.640;2023-07-20T17:41:48;1.77;;;0.75;;
40588;SDS011;26297;49.450;6.640;2023-07-20T17:44:52;0.85;;;0.75;;
40588;SDS011;26297;49.450;6.640;2023-07-20T17:56:26;0.70;;;0.50;;
40588;SDS011;26297;49.450;6.640;2023-07-20T18:02:57;0.55;;;0.50;;
40588;SDS011;26297;49.450;6.640;2023-07-20T18:13:38;0.75;;;0.70;;
40588;SDS011;26297;49.450;6.640;2023-07-20T18:17:10;2.15;;;0.60;;
40588;SDS011;26297;49.450;6.640;2023-07-20T18:55:06;0.70;;;0.65;;
40588;SDS011;26297;49.450;6.640;2023-07-20T19:12:14;0.90;;;0.60;;
40588;SDS011;26297;49.450;6.640;2023-07-20T19:16:10;3.20;;;0.98;;
40588;SDS011;26297;49.450;6.640;2023-07-20T19:58:49;2.15;;;0.52;;
40588;SDS011;26297;49.450;6.640;2023-07-20T20:47:27;1.02;;;0.50;;
40588;SDS011;26297;49.450;6.640;2023-07-20T20:55:02;0.40;;;0.40;;
40588;SDS011;26297;49.450;6.640;2023-07-20T20:58:24;1.98;;;0.60;;
40588;SDS011;26297;49.450;6.640;2023-07-20T21:01:54;0.82;;;0.60;;
40588;SDS011;26297;49.450;6.640;2023-07-20T23:42:21;1.42;;;0.50;;
40588;SDS011;26297;49.450;6.640;2023-07-20T23:45:35;1.15;;;0.70;;
40588;SDS011;26297;49.450;6.640;2023-07-20T23:48:50;0.90;;;0.80;;
40588;SDS011;26297;49.450;6.640;2023-07-20T23:52:00;2.60;;;0.80;;
40588;SDS011;26297;49.450;6.640;2023-07-20T23:55:15;1.63;;;0.77;;
40588;SDS011;26297;49.450;6.640;2023-07-20T23:58:20;2.15;;;0.77;;
